P/v Golden Gate — WDE5665 — position and weather

sailwx.info

Track history (hours):
 
Tides and Currents Weather Stations Pressure Air Temp Water Temp Dewpoint Dewpoint Depression Visibility Wind Speed Wind Dir Waves Ship Positions

P/v Golden Gate

Owner: San Francisco Bar Pilots Benevolent and Protective, San Francisco, CA. More information available from US FCC via Universal Licensing System and Coast Guard Vessel Documentation Center.

Last reported at 2014-Nov-25 01:33 UTC. Time now 2014-Nov-25 01:54 UTC.
Position N 37°48' W 122°21'.

Length 23 m; draft 2 m.

Type: Pilot. MMSI: 367370010.

Date/timePositionNaut miles runAvg speedWind from/ knotsBaromVisibWave heightAir tempDewpointWater temp
2014-Nov-25 01:33N 37°48' W 122°21'1110.8
2014-Nov-25 00:33N 37°47' W 122°35'1111.4
2014-Nov-24 23:33N 37°48' W 122°21'3 2.6
2014-Nov-24 22:34N 37°48' W 122°24'1 1.1
2014-Nov-24 21:29N 37°49' W 122°25'1 1.3
2014-Nov-24 20:33N 37°48' W 122°24'0 0.0
2014-Nov-24 19:33N 37°48' W 122°24'0 0.0
2014-Nov-24 18:33N 37°48' W 122°24'0 0.0
2014-Nov-24 17:33N 37°48' W 122°24'0 0.0
2014-Nov-24 16:34N 37°48' W 122°24'0 0.0
2014-Nov-24 15:33N 37°48' W 122°24'0 0.0
2014-Nov-24 14:33N 37°48' W 122°24'3 3.2
2014-Nov-24 13:33N 37°49' W 122°28'6 5.6
2014-Nov-24 12:33N 37°48' W 122°21'2 2.4
2014-Nov-24 11:33N 37°48' W 122°24'3 2.9
2014-Nov-24 10:33N 37°49' W 122°20'3 2.9
2014-Nov-24 09:33N 37°48' W 122°24'0 0.0
2014-Nov-24 08:33N 37°48' W 122°24'0 0.0
2014-Nov-24 07:33N 37°48' W 122°24'1 0.9
2014-Nov-24 06:34N 37°48' W 122°23'7 6.6
2014-Nov-24 05:33N 37°48' W 122°31'5 4.6
2014-Nov-24 04:33N 37°49' W 122°25'2 1.5
2014-Nov-24 03:33N 37°48' W 122°24'0 0.4
2014-Nov-24 02:33N 37°48' W 122°23'0 0.4
2014-Nov-24 01:33N 37°48' W 122°24'3 3.4
2014-Nov-24 00:33N 37°46' W 122°21'3 3.4
2014-Nov-23 23:33N 37°48' W 122°24'0 0.1
2014-Nov-23 22:33N 37°48' W 122°24'3 2.7
2014-Nov-23 21:34N 37°46' W 122°21'1 1.4
2014-Nov-23 20:33N 37°45' W 122°21'4 4.1
2014-Nov-23 19:33N 37°48' W 122°24'0 0.0
2014-Nov-23 18:33N 37°48' W 122°24'1 0.5
2014-Nov-23 17:33N 37°48' W 122°23'1 0.5
2014-Nov-23 16:33N 37°48' W 122°24'3 3.4
2014-Nov-23 15:33N 37°45' W 122°21'3 3.1
2014-Nov-23 14:33N 37°48' W 122°19'4 3.8
2014-Nov-23 13:33N 37°48' W 122°24'3 2.9
2014-Nov-23 12:33N 37°46' W 122°21'3 2.9
2014-Nov-23 11:34N 37°48' W 122°24'8 8.2
2014-Nov-23 10:33N 37°47' W 122°34'8 8.3
2014-Nov-23 09:34N 37°48' W 122°24'0 0.1
2014-Nov-23 08:33N 37°48' W 122°24'0 0.0
2014-Nov-23 07:33N 37°48' W 122°24'0 0.0
2014-Nov-23 06:34N 37°48' W 122°24'0 0.0
2014-Nov-23 05:34N 37°48' W 122°24'6 5.8
2014-Nov-23 04:33N 37°48' W 122°31'6 5.8
2014-Nov-23 03:33N 37°48' W 122°24'4 4.0
2014-Nov-23 02:33N 37°45' W 122°21'4 3.9
2014-Nov-23 01:33N 37°48' W 122°24'2 2.5
2014-Nov-23 00:33N 37°47' W 122°21'1 1.2
2014-Nov-22 23:34N 37°47' W 122°22'1 1.3
2014-Nov-22 22:33N 37°48' W 122°24'0 0.0
2014-Nov-22 21:33N 37°48' W 122°24'3 3.1
2014-Nov-22 20:33N 37°51' W 122°24'3 3.1
2014-Nov-22 19:33N 37°48' W 122°24'1 1.2
2014-Nov-22 18:33N 37°49' W 122°25'1 1.0
2014-Nov-22 17:33N 37°49' W 122°26'0 0.1
2014-Nov-22 16:33N 37°49' W 122°26'2 2.2
2014-Nov-22 15:34N 37°48' W 122°24'0 0.0
2014-Nov-22 14:33N 37°48' W 122°24'0 0.1
2014-Nov-22 13:33N 37°48' W 122°24'0 0.1
2014-Nov-22 12:33N 37°48' W 122°24'0 0.0
2014-Nov-22 11:33N 37°48' W 122°24'0 0.0
2014-Nov-22 10:33N 37°48' W 122°24'0 0.0
2014-Nov-22 09:33N 37°48' W 122°24'0 0.0
2014-Nov-22 08:33N 37°48' W 122°24'1 0.7
2014-Nov-22 07:34N 37°48' W 122°23'1 1.1
2014-Nov-22 06:34N 37°47' W 122°22'2 1.5
2014-Nov-22 05:33N 37°48' W 122°24'0 0.0
2014-Nov-22 04:33N 37°48' W 122°24'0 0.0
2014-Nov-22 03:33N 37°48' W 122°24'0 0.0
2014-Nov-22 02:33N 37°48' W 122°24'2 2.0
2014-Nov-22 01:33N 37°48' W 122°21'1 0.7
2014-Nov-22 00:33N 37°47' W 122°21'2 2.3
2014-Nov-21 23:33N 37°45' W 122°21'4 3.9
2014-Nov-21 22:34N 37°48' W 122°24'0 0.0
2014-Nov-21 21:33N 37°48' W 122°24'0 0.0
2014-Nov-21 20:34N 37°48' W 122°24'0 0.0
2014-Nov-21 19:33N 37°48' W 122°24'0 0.0
2014-Nov-21 18:33N 37°48' W 122°24'0 0.0
2014-Nov-21 17:34N 37°48' W 122°24'0 0.0
2014-Nov-21 16:34N 37°48' W 122°24'0 0.0
2014-Nov-21 15:34N 37°48' W 122°24'0 0.0
2014-Nov-21 14:33N 37°48' W 122°24'0 0.0
2014-Nov-21 13:33N 37°48' W 122°24'0 0.0
2014-Nov-21 12:33N 37°48' W 122°24'0 0.0
2014-Nov-21 11:33N 37°48' W 122°24'0 0.0
2014-Nov-21 10:33N 37°48' W 122°24'3 2.8
2014-Nov-21 09:33N 37°49' W 122°27'3 2.8
2014-Nov-21 08:33N 37°48' W 122°24'0 0.0
2014-Nov-21 07:34N 37°48' W 122°24'0 0.0
2014-Nov-21 06:33N 37°48' W 122°24'0 0.0
2014-Nov-21 05:33N 37°48' W 122°24'0 0.0
2014-Nov-21 04:33N 37°48' W 122°24'0 0.0
2014-Nov-21 03:33N 37°48' W 122°24'0 0.0
2014-Nov-21 02:33N 37°48' W 122°24'0 0.0
2014-Nov-21 01:33N 37°48' W 122°24'0 0.0
2014-Nov-21 00:33N 37°48' W 122°24'0 0.0
2014-Nov-20 23:33N 37°48' W 122°24'0 0.0
2014-Nov-20 22:33N 37°48' W 122°24'1 0.6
2014-Nov-20 21:33N 37°49' W 122°24'1 0.6
2014-Nov-20 20:34N 37°48' W 122°24'1 0.9
2014-Nov-20 19:34N 37°48' W 122°23'5 4.7
2014-Nov-20 18:33N 37°49' W 122°29'1110.7
2014-Nov-20 17:33N 37°45' W 122°41'1514.6
2014-Nov-20 16:33N 37°49' W 122°23'1 0.7
2014-Nov-20 15:33N 37°48' W 122°24'5 5.0
2014-Nov-20 14:33N 37°44' W 122°20'5 5.0
2014-Nov-20 13:33N 37°48' W 122°24'0 0.0
2014-Nov-20 12:33N 37°48' W 122°24'0 0.3
2014-Nov-20 11:33N 37°48' W 122°23'0 0.3
2014-Nov-20 10:34N 37°48' W 122°24'0 0.0
2014-Nov-20 09:33N 37°48' W 122°24'0 0.0
2014-Nov-20 08:33N 37°48' W 122°24'0 0.0
2014-Nov-20 07:33N 37°48' W 122°24'0 0.0
2014-Nov-20 06:33N 37°48' W 122°24'5 5.1
2014-Nov-20 05:33N 37°48' W 122°30'3 2.7
2014-Nov-20 04:32N 37°47' W 122°34'8 8.0
2014-Nov-20 03:33N 37°48' W 122°24'3 3.0
2014-Nov-20 02:33N 37°46' W 122°21'1 0.9
2014-Nov-20 01:33N 37°45' W 122°21'4 3.6
2014-Nov-20 00:33N 37°48' W 122°24'2 1.9
2014-Nov-19 23:33N 37°47' W 122°22'1 1.0
2014-Nov-19 22:33N 37°48' W 122°21'3 2.5
2014-Nov-19 21:33N 37°48' W 122°24'0 0.0
2014-Nov-19 20:33N 37°48' W 122°24'0 0.0
2014-Nov-19 19:33N 37°48' W 122°24'0 0.0
2014-Nov-19 18:33N 37°48' W 122°24'2 1.8
2014-Nov-19 17:33N 37°48' W 122°26'3 3.0
2014-Nov-19 16:33N 37°48' W 122°22'1 1.3
2014-Nov-19 15:33N 37°48' W 122°20'0 0.5
2014-Nov-19 14:33N 37°49' W 122°20'3 3.4
2014-Nov-19 13:34N 37°45' W 122°21'4 3.5
2014-Nov-19 12:33N 37°48' W 122°24'3 3.1
2014-Nov-19 11:33N 37°46' W 122°21'3 2.8
2014-Nov-19 10:33N 37°48' W 122°19'3 3.5
2014-Nov-19 09:34N 37°48' W 122°24'0 0.0
2014-Nov-19 08:33N 37°48' W 122°24'3 2.6
2014-Nov-19 07:33N 37°47' W 122°21'1 1.1
2014-Nov-19 06:33N 37°46' W 122°21'3 2.8
2014-Nov-19 05:33N 37°48' W 122°24'4 3.8
2014-Nov-19 04:33N 37°48' W 122°19'1 1.2
2014-Nov-19 03:33N 37°49' W 122°19'3 2.7
2014-Nov-19 02:33N 37°48' W 122°23'1 0.9
2014-Nov-19 01:33N 37°48' W 122°24'5 5.2
2014-Nov-19 00:34N 37°48' W 122°17'1817.3
2014-Nov-18 23:31N 37°45' W 122°40'1313.3
2014-Nov-18 22:33N 37°48' W 122°24'0 0.0
2014-Nov-18 21:33N 37°48' W 122°24'0 0.0
2014-Nov-18 20:33N 37°48' W 122°24'0 0.0
2014-Nov-18 19:33N 37°48' W 122°24'0 0.0
2014-Nov-18 18:33N 37°48' W 122°24'1 0.6
2014-Nov-18 17:33N 37°49' W 122°24'1 0.6
2014-Nov-18 16:33N 37°48' W 122°24'4 3.7
2014-Nov-18 15:33N 37°49' W 122°19'5 4.7
2014-Nov-18 14:33N 37°49' W 122°25'1 1.2
2014-Nov-18 13:34N 37°48' W 122°24'4 4.5
2014-Nov-18 12:33N 37°44' W 122°21'1413.5
2014-Nov-18 11:32N 37°46' W 122°38'1211.8
2014-Nov-18 10:33N 37°48' W 122°24'0 0.0
2014-Nov-18 09:33N 37°48' W 122°24'0 0.0
2014-Nov-18 08:33N 37°48' W 122°24'0 0.0
2014-Nov-18 07:32N 37°48' W 122°24'2 1.7
2014-Nov-18 06:33N 37°47' W 122°22'2 1.6
2014-Nov-18 05:33N 37°48' W 122°24'0 0.0
2014-Nov-18 04:33N 37°48' W 122°24'0 0.0
2014-Nov-18 03:33N 37°48' W 122°24'3 3.0
2014-Nov-18 02:33N 37°49' W 122°20'1413.8
2014-Nov-18 01:33N 37°46' W 122°37'1110.9
2014-Nov-18 00:33N 37°48' W 122°24'0 0.0
2014-Nov-17 23:33N 37°48' W 122°24'0 0.0
2014-Nov-17 22:33N 37°48' W 122°24'0 0.0
2014-Nov-17 21:33N 37°48' W 122°24'0 0.0
2014-Nov-17 20:33N 37°48' W 122°24'0 0.0
2014-Nov-17 19:33N 37°48' W 122°24'0 0.0
2014-Nov-17 18:33N 37°48' W 122°24'0 0.0
2014-Nov-17 17:33N 37°48' W 122°24'0 0.0
2014-Nov-17 16:33N 37°48' W 122°24'0 0.0
2014-Nov-17 15:33N 37°48' W 122°24'0 0.0
2014-Nov-17 14:33N 37°48' W 122°24'0 0.0
2014-Nov-17 13:33N 37°48' W 122°24'0 0.0
2014-Nov-17 12:33N 37°48' W 122°24'0 0.0
2014-Nov-17 11:33N 37°48' W 122°24'0 0.0
2014-Nov-17 10:33N 37°48' W 122°24'0 0.0
2014-Nov-17 09:33N 37°48' W 122°24'0 0.0
2014-Nov-17 08:33N 37°48' W 122°24'0 0.0
2014-Nov-17 07:33N 37°48' W 122°24'0 0.0
2014-Nov-17 06:33N 37°48' W 122°24'5 4.8
2014-Nov-17 05:32N 37°44' W 122°21'5 5.0
2014-Nov-17 04:33N 37°48' W 122°24'0 0.0
2014-Nov-17 03:33N 37°48' W 122°24'0 0.0
2014-Nov-17 02:33N 37°48' W 122°24'0 0.0
2014-Nov-17 01:33N 37°48' W 122°24'8 8.2
2014-Nov-17 00:33N 37°47' W 122°34'1211.5
2014-Nov-16 23:33N 37°48' W 122°19'3 3.4
2014-Nov-16 22:33N 37°48' W 122°24'0 0.0
2014-Nov-16 21:33N 37°48' W 122°24'0 0.0
2014-Nov-16 20:33N 37°48' W 122°24'0 0.0
2014-Nov-16 19:33N 37°48' W 122°24'3 3.5
2014-Nov-16 18:33N 37°48' W 122°19'3 3.5
2014-Nov-16 17:33N 37°48' W 122°24'3 2.8
2014-Nov-16 16:33N 37°51' W 122°25'3 2.8
2014-Nov-16 15:33N 37°48' W 122°24'3 2.8
2014-Nov-16 14:34N 37°49' W 122°27'3 2.6
2014-Nov-16 13:34N 37°48' W 122°24'1 0.5
2014-Nov-16 12:33N 37°48' W 122°23'0 0.4
2014-Nov-16 11:33N 37°48' W 122°24'3 3.4
2014-Nov-16 10:33N 37°45' W 122°21'4 3.5
2014-Nov-16 09:34N 37°48' W 122°24'0 0.1
2014-Nov-16 08:33N 37°48' W 122°24'0 0.0
2014-Nov-16 07:33N 37°48' W 122°24'0 0.0
2014-Nov-16 06:33N 37°48' W 122°24'0 0.5
2014-Nov-16 05:33N 37°48' W 122°23'10 9.9
2014-Nov-16 04:33N 37°46' W 122°36'1111.3
2014-Nov-16 03:33N 37°46' W 122°21'2 2.5
2014-Nov-16 02:34N 37°48' W 122°22'2 1.7
2014-Nov-16 01:33N 37°48' W 122°24'3 2.7
2014-Nov-16 00:34N 37°49' W 122°27'3 3.4
2014-Nov-15 23:33N 37°48' W 122°23'1 0.8
2014-Nov-15 22:33N 37°48' W 122°24'0 0.0
2014-Nov-15 21:33N 37°48' W 122°24'4 4.3
2014-Nov-15 20:33N 37°45' W 122°20'4 4.3
2014-Nov-15 19:33N 37°48' W 122°24'0 0.0
2014-Nov-15 18:34N 37°48' W 122°24'0 0.0
2014-Nov-15 17:33N 37°48' W 122°24'0 0.0
2014-Nov-15 16:33N 37°48' W 122°24'1211.6
2014-Nov-15 15:33N 37°46' W 122°38'1211.6
2014-Nov-15 14:33N 37°48' W 122°24'1 1.2
2014-Nov-15 13:34N 37°48' W 122°22'1 1.2
2014-Nov-15 12:33N 37°48' W 122°24'2 2.2
2014-Nov-15 11:33N 37°48' W 122°21'2 2.2
2014-Nov-15 10:33N 37°48' W 122°24'3 3.5
2014-Nov-15 09:33N 37°49' W 122°19'4 3.5
2014-Nov-15 08:33N 37°48' W 122°24'0 0.0
2014-Nov-15 07:33N 37°48' W 122°24'0 0.0
2014-Nov-15 06:33N 37°48' W 122°24'0 0.0
2014-Nov-15 05:33N 37°48' W 122°24'3 3.3
2014-Nov-15 04:33N 37°48' W 122°20'3 3.3
2014-Nov-15 03:33N 37°48' W 122°24'2 2.3
2014-Nov-15 02:33N 37°48' W 122°21'  
Track history (hours):
 
Tides and Currents Weather Stations Pressure Air Temp Water Temp Dewpoint Dewpoint Depression Visibility Wind Speed Wind Dir Waves Ship Positions

P/v Golden Gate

Owner: San Francisco Bar Pilots Benevolent and Protective, San Francisco, CA. More information available from US FCC via Universal Licensing System and Coast Guard Vessel Documentation Center.

Last reported at 2014-Nov-25 01:33 UTC. Time now 2014-Nov-25 01:54 UTC.
Position N 37°48' W 122°21'.

Length 23 m; draft 2 m.

Type: Pilot. MMSI: 367370010.

Date/timePositionNaut miles runAvg speedWind from/ knotsBaromVisibWave heightAir tempDewpointWater temp
2014-Nov-25 01:33N 37°48' W 122°21'1110.8
2014-Nov-25 00:33N 37°47' W 122°35'1111.4
2014-Nov-24 23:33N 37°48' W 122°21'3 2.6
2014-Nov-24 22:34N 37°48' W 122°24'1 1.1
2014-Nov-24 21:29N 37°49' W 122°25'1 1.3
2014-Nov-24 20:33N 37°48' W 122°24'0 0.0
2014-Nov-24 19:33N 37°48' W 122°24'0 0.0
2014-Nov-24 18:33N 37°48' W 122°24'0 0.0
2014-Nov-24 17:33N 37°48' W 122°24'0 0.0
2014-Nov-24 16:34N 37°48' W 122°24'0 0.0
2014-Nov-24 15:33N 37°48' W 122°24'0 0.0
2014-Nov-24 14:33N 37°48' W 122°24'3 3.2
2014-Nov-24 13:33N 37°49' W 122°28'6 5.6
2014-Nov-24 12:33N 37°48' W 122°21'2 2.4
2014-Nov-24 11:33N 37°48' W 122°24'3 2.9
2014-Nov-24 10:33N 37°49' W 122°20'3 2.9
2014-Nov-24 09:33N 37°48' W 122°24'0 0.0
2014-Nov-24 08:33N 37°48' W 122°24'0 0.0
2014-Nov-24 07:33N 37°48' W 122°24'1 0.9
2014-Nov-24 06:34N 37°48' W 122°23'7 6.6
2014-Nov-24 05:33N 37°48' W 122°31'5 4.6
2014-Nov-24 04:33N 37°49' W 122°25'2 1.5
2014-Nov-24 03:33N 37°48' W 122°24'0 0.4
2014-Nov-24 02:33N 37°48' W 122°23'0 0.4
2014-Nov-24 01:33N 37°48' W 122°24'3 3.4
2014-Nov-24 00:33N 37°46' W 122°21'3 3.4
2014-Nov-23 23:33N 37°48' W 122°24'0 0.1
2014-Nov-23 22:33N 37°48' W 122°24'3 2.7
2014-Nov-23 21:34N 37°46' W 122°21'1 1.4
2014-Nov-23 20:33N 37°45' W 122°21'4 4.1
2014-Nov-23 19:33N 37°48' W 122°24'0 0.0
2014-Nov-23 18:33N 37°48' W 122°24'1 0.5
2014-Nov-23 17:33N 37°48' W 122°23'1 0.5
2014-Nov-23 16:33N 37°48' W 122°24'3 3.4
2014-Nov-23 15:33N 37°45' W 122°21'3 3.1
2014-Nov-23 14:33N 37°48' W 122°19'4 3.8
2014-Nov-23 13:33N 37°48' W 122°24'3 2.9
2014-Nov-23 12:33N 37°46' W 122°21'3 2.9
2014-Nov-23 11:34N 37°48' W 122°24'8 8.2
2014-Nov-23 10:33N 37°47' W 122°34'8 8.3
2014-Nov-23 09:34N 37°48' W 122°24'0 0.1
2014-Nov-23 08:33N 37°48' W 122°24'0 0.0
2014-Nov-23 07:33N 37°48' W 122°24'0 0.0
2014-Nov-23 06:34N 37°48' W 122°24'0 0.0
2014-Nov-23 05:34N 37°48' W 122°24'6 5.8
2014-Nov-23 04:33N 37°48' W 122°31'6 5.8
2014-Nov-23 03:33N 37°48' W 122°24'4 4.0
2014-Nov-23 02:33N 37°45' W 122°21'4 3.9
2014-Nov-23 01:33N 37°48' W 122°24'2 2.5
2014-Nov-23 00:33N 37°47' W 122°21'1 1.2
2014-Nov-22 23:34N 37°47' W 122°22'1 1.3
2014-Nov-22 22:33N 37°48' W 122°24'0 0.0
2014-Nov-22 21:33N 37°48' W 122°24'3 3.1
2014-Nov-22 20:33N 37°51' W 122°24'3 3.1
2014-Nov-22 19:33N 37°48' W 122°24'1 1.2
2014-Nov-22 18:33N 37°49' W 122°25'1 1.0
2014-Nov-22 17:33N 37°49' W 122°26'0 0.1
2014-Nov-22 16:33N 37°49' W 122°26'2 2.2
2014-Nov-22 15:34N 37°48' W 122°24'0 0.0
2014-Nov-22 14:33N 37°48' W 122°24'0 0.1
2014-Nov-22 13:33N 37°48' W 122°24'0 0.1
2014-Nov-22 12:33N 37°48' W 122°24'0 0.0
2014-Nov-22 11:33N 37°48' W 122°24'0 0.0
2014-Nov-22 10:33N 37°48' W 122°24'0 0.0
2014-Nov-22 09:33N 37°48' W 122°24'0 0.0
2014-Nov-22 08:33N 37°48' W 122°24'1 0.7
2014-Nov-22 07:34N 37°48' W 122°23'1 1.1
2014-Nov-22 06:34N 37°47' W 122°22'2 1.5
2014-Nov-22 05:33N 37°48' W 122°24'0 0.0
2014-Nov-22 04:33N 37°48' W 122°24'0 0.0
2014-Nov-22 03:33N 37°48' W 122°24'0 0.0
2014-Nov-22 02:33N 37°48' W 122°24'2 2.0
2014-Nov-22 01:33N 37°48' W 122°21'1 0.7
2014-Nov-22 00:33N 37°47' W 122°21'2 2.3
2014-Nov-21 23:33N 37°45' W 122°21'4 3.9
2014-Nov-21 22:34N 37°48' W 122°24'0 0.0
2014-Nov-21 21:33N 37°48' W 122°24'0 0.0
2014-Nov-21 20:34N 37°48' W 122°24'0 0.0
2014-Nov-21 19:33N 37°48' W 122°24'0 0.0
2014-Nov-21 18:33N 37°48' W 122°24'0 0.0
2014-Nov-21 17:34N 37°48' W 122°24'0 0.0
2014-Nov-21 16:34N 37°48' W 122°24'0 0.0
2014-Nov-21 15:34N 37°48' W 122°24'0 0.0
2014-Nov-21 14:33N 37°48' W 122°24'0 0.0
2014-Nov-21 13:33N 37°48' W 122°24'0 0.0
2014-Nov-21 12:33N 37°48' W 122°24'0 0.0
2014-Nov-21 11:33N 37°48' W 122°24'0 0.0
2014-Nov-21 10:33N 37°48' W 122°24'3 2.8
2014-Nov-21 09:33N 37°49' W 122°27'3 2.8
2014-Nov-21 08:33N 37°48' W 122°24'0 0.0
2014-Nov-21 07:34N 37°48' W 122°24'0 0.0
2014-Nov-21 06:33N 37°48' W 122°24'0 0.0
2014-Nov-21 05:33N 37°48' W 122°24'0 0.0
2014-Nov-21 04:33N 37°48' W 122°24'0 0.0
2014-Nov-21 03:33N 37°48' W 122°24'0 0.0
2014-Nov-21 02:33N 37°48' W 122°24'0 0.0
2014-Nov-21 01:33N 37°48' W 122°24'0 0.0
2014-Nov-21 00:33N 37°48' W 122°24'0 0.0
2014-Nov-20 23:33N 37°48' W 122°24'0 0.0
2014-Nov-20 22:33N 37°48' W 122°24'1 0.6
2014-Nov-20 21:33N 37°49' W 122°24'1 0.6
2014-Nov-20 20:34N 37°48' W 122°24'1 0.9
2014-Nov-20 19:34N 37°48' W 122°23'5 4.7
2014-Nov-20 18:33N 37°49' W 122°29'1110.7
2014-Nov-20 17:33N 37°45' W 122°41'1514.6
2014-Nov-20 16:33N 37°49' W 122°23'1 0.7
2014-Nov-20 15:33N 37°48' W 122°24'5 5.0
2014-Nov-20 14:33N 37°44' W 122°20'5 5.0
2014-Nov-20 13:33N 37°48' W 122°24'0 0.0
2014-Nov-20 12:33N 37°48' W 122°24'0 0.3
2014-Nov-20 11:33N 37°48' W 122°23'0 0.3
2014-Nov-20 10:34N 37°48' W 122°24'0 0.0
2014-Nov-20 09:33N 37°48' W 122°24'0 0.0
2014-Nov-20 08:33N 37°48' W 122°24'0 0.0
2014-Nov-20 07:33N 37°48' W 122°24'0 0.0
2014-Nov-20 06:33N 37°48' W 122°24'5 5.1
2014-Nov-20 05:33N 37°48' W 122°30'3 2.7
2014-Nov-20 04:32N 37°47' W 122°34'8 8.0
2014-Nov-20 03:33N 37°48' W 122°24'3 3.0
2014-Nov-20 02:33N 37°46' W 122°21'1 0.9
2014-Nov-20 01:33N 37°45' W 122°21'4 3.6
2014-Nov-20 00:33N 37°48' W 122°24'2 1.9
2014-Nov-19 23:33N 37°47' W 122°22'1 1.0
2014-Nov-19 22:33N 37°48' W 122°21'3 2.5
2014-Nov-19 21:33N 37°48' W 122°24'0 0.0
2014-Nov-19 20:33N 37°48' W 122°24'0 0.0
2014-Nov-19 19:33N 37°48' W 122°24'0 0.0
2014-Nov-19 18:33N 37°48' W 122°24'2 1.8
2014-Nov-19 17:33N 37°48' W 122°26'3 3.0
2014-Nov-19 16:33N 37°48' W 122°22'1 1.3
2014-Nov-19 15:33N 37°48' W 122°20'0 0.5
2014-Nov-19 14:33N 37°49' W 122°20'3 3.4
2014-Nov-19 13:34N 37°45' W 122°21'4 3.5
2014-Nov-19 12:33N 37°48' W 122°24'3 3.1
2014-Nov-19 11:33N 37°46' W 122°21'3 2.8
2014-Nov-19 10:33N 37°48' W 122°19'3 3.5
2014-Nov-19 09:34N 37°48' W 122°24'0 0.0
2014-Nov-19 08:33N 37°48' W 122°24'3 2.6
2014-Nov-19 07:33N 37°47' W 122°21'1 1.1
2014-Nov-19 06:33N 37°46' W 122°21'3 2.8
2014-Nov-19 05:33N 37°48' W 122°24'4 3.8
2014-Nov-19 04:33N 37°48' W 122°19'1 1.2
2014-Nov-19 03:33N 37°49' W 122°19'3 2.7
2014-Nov-19 02:33N 37°48' W 122°23'1 0.9
2014-Nov-19 01:33N 37°48' W 122°24'5 5.2
2014-Nov-19 00:34N 37°48' W 122°17'1817.3
2014-Nov-18 23:31N 37°45' W 122°40'1313.3
2014-Nov-18 22:33N 37°48' W 122°24'0 0.0
2014-Nov-18 21:33N 37°48' W 122°24'0 0.0
2014-Nov-18 20:33N 37°48' W 122°24'0 0.0
2014-Nov-18 19:33N 37°48' W 122°24'0 0.0
2014-Nov-18 18:33N 37°48' W 122°24'1 0.6
2014-Nov-18 17:33N 37°49' W 122°24'1 0.6
2014-Nov-18 16:33N 37°48' W 122°24'4 3.7
2014-Nov-18 15:33N 37°49' W 122°19'5 4.7
2014-Nov-18 14:33N 37°49' W 122°25'1 1.2
2014-Nov-18 13:34N 37°48' W 122°24'4 4.5
2014-Nov-18 12:33N 37°44' W 122°21'1413.5
2014-Nov-18 11:32N 37°46' W 122°38'1211.8
2014-Nov-18 10:33N 37°48' W 122°24'0 0.0
2014-Nov-18 09:33N 37°48' W 122°24'0 0.0
2014-Nov-18 08:33N 37°48' W 122°24'0 0.0
2014-Nov-18 07:32N 37°48' W 122°24'2 1.7
2014-Nov-18 06:33N 37°47' W 122°22'2 1.6
2014-Nov-18 05:33N 37°48' W 122°24'0 0.0
2014-Nov-18 04:33N 37°48' W 122°24'0 0.0
2014-Nov-18 03:33N 37°48' W 122°24'3 3.0
2014-Nov-18 02:33N 37°49' W 122°20'1413.8
2014-Nov-18 01:33N 37°46' W 122°37'1110.9
2014-Nov-18 00:33N 37°48' W 122°24'0 0.0
2014-Nov-17 23:33N 37°48' W 122°24'0 0.0
2014-Nov-17 22:33N 37°48' W 122°24'0 0.0
2014-Nov-17 21:33N 37°48' W 122°24'0 0.0
2014-Nov-17 20:33N 37°48' W 122°24'0 0.0
2014-Nov-17 19:33N 37°48' W 122°24'0 0.0
2014-Nov-17 18:33N 37°48' W 122°24'0 0.0
2014-Nov-17 17:33N 37°48' W 122°24'0 0.0
2014-Nov-17 16:33N 37°48' W 122°24'0 0.0
2014-Nov-17 15:33N 37°48' W 122°24'0 0.0
2014-Nov-17 14:33N 37°48' W 122°24'0 0.0
2014-Nov-17 13:33N 37°48' W 122°24'0 0.0
2014-Nov-17 12:33N 37°48' W 122°24'0 0.0
2014-Nov-17 11:33N 37°48' W 122°24'0 0.0
2014-Nov-17 10:33N 37°48' W 122°24'0 0.0
2014-Nov-17 09:33N 37°48' W 122°24'0 0.0
2014-Nov-17 08:33N 37°48' W 122°24'0 0.0
2014-Nov-17 07:33N 37°48' W 122°24'0 0.0
2014-Nov-17 06:33N 37°48' W 122°24'5 4.8
2014-Nov-17 05:32N 37°44' W 122°21'5 5.0
2014-Nov-17 04:33N 37°48' W 122°24'0 0.0
2014-Nov-17 03:33N 37°48' W 122°24'0 0.0
2014-Nov-17 02:33N 37°48' W 122°24'0 0.0
2014-Nov-17 01:33N 37°48' W 122°24'8 8.2
2014-Nov-17 00:33N 37°47' W 122°34'1211.5
2014-Nov-16 23:33N 37°48' W 122°19'3 3.4
2014-Nov-16 22:33N 37°48' W 122°24'0 0.0
2014-Nov-16 21:33N 37°48' W 122°24'0 0.0
2014-Nov-16 20:33N 37°48' W 122°24'0 0.0
2014-Nov-16 19:33N 37°48' W 122°24'3 3.5
2014-Nov-16 18:33N 37°48' W 122°19'3 3.5
2014-Nov-16 17:33N 37°48' W 122°24'3 2.8
2014-Nov-16 16:33N 37°51' W 122°25'3 2.8
2014-Nov-16 15:33N 37°48' W 122°24'3 2.8
2014-Nov-16 14:34N 37°49' W 122°27'3 2.6
2014-Nov-16 13:34N 37°48' W 122°24'1 0.5
2014-Nov-16 12:33N 37°48' W 122°23'0 0.4
2014-Nov-16 11:33N 37°48' W 122°24'3 3.4
2014-Nov-16 10:33N 37°45' W 122°21'4 3.5
2014-Nov-16 09:34N 37°48' W 122°24'0 0.1
2014-Nov-16 08:33N 37°48' W 122°24'0 0.0
2014-Nov-16 07:33N 37°48' W 122°24'0 0.0
2014-Nov-16 06:33N 37°48' W 122°24'0 0.5
2014-Nov-16 05:33N 37°48' W 122°23'10 9.9
2014-Nov-16 04:33N 37°46' W 122°36'1111.3
2014-Nov-16 03:33N 37°46' W 122°21'2 2.5
2014-Nov-16 02:34N 37°48' W 122°22'2 1.7
2014-Nov-16 01:33N 37°48' W 122°24'3 2.7
2014-Nov-16 00:34N 37°49' W 122°27'3 3.4
2014-Nov-15 23:33N 37°48' W 122°23'1 0.8
2014-Nov-15 22:33N 37°48' W 122°24'0 0.0
2014-Nov-15 21:33N 37°48' W 122°24'4 4.3
2014-Nov-15 20:33N 37°45' W 122°20'4 4.3
2014-Nov-15 19:33N 37°48' W 122°24'0 0.0
2014-Nov-15 18:34N 37°48' W 122°24'0 0.0
2014-Nov-15 17:33N 37°48' W 122°24'0 0.0
2014-Nov-15 16:33N 37°48' W 122°24'1211.6
2014-Nov-15 15:33N 37°46' W 122°38'1211.6
2014-Nov-15 14:33N 37°48' W 122°24'1 1.2
2014-Nov-15 13:34N 37°48' W 122°22'1 1.2
2014-Nov-15 12:33N 37°48' W 122°24'2 2.2
2014-Nov-15 11:33N 37°48' W 122°21'2 2.2
2014-Nov-15 10:33N 37°48' W 122°24'3 3.5
2014-Nov-15 09:33N 37°49' W 122°19'4 3.5
2014-Nov-15 08:33N 37°48' W 122°24'0 0.0
2014-Nov-15 07:33N 37°48' W 122°24'0 0.0
2014-Nov-15 06:33N 37°48' W 122°24'0 0.0
2014-Nov-15 05:33N 37°48' W 122°24'3 3.3
2014-Nov-15 04:33N 37°48' W 122°20'3 3.3
2014-Nov-15 03:33N 37°48' W 122°24'2 2.3
2014-Nov-15 02:33N 37°48' W 122°21'  

Dump ship's entire track history